createdAt,value
2019-03-12T00:00:47.452Z,35.01
2019-03-12T00:01:47.468Z,34.93
2019-03-12T00:02:47.467Z,34.73
2019-03-12T00:03:47.478Z,34.64
2019-03-12T00:04:47.455Z,34.83
2019-03-12T00:05:47.444Z,34.64
2019-03-12T00:06:47.455Z,34.56
2019-03-12T00:07:47.447Z,34.59
2019-03-12T00:08:47.465Z,34.89
2019-03-12T00:09:47.418Z,34.68
2019-03-12T00:10:47.477Z,34.90
2019-03-12T00:11:47.462Z,34.80
2019-03-12T00:12:47.448Z,34.73
2019-03-12T00:13:47.485Z,34.51
2019-03-12T00:14:47.465Z,34.89
2019-03-12T00:15:47.435Z,34.51
2019-03-12T00:16:47.495Z,34.42
2019-03-12T00:17:47.457Z,34.66
2019-03-12T00:18:47.460Z,34.42
2019-03-12T00:19:47.458Z,34.82
2019-03-12T00:20:47.483Z,34.73
2019-03-12T00:21:47.458Z,34.79
2019-03-12T00:22:47.481Z,34.64
2019-03-12T00:23:47.451Z,34.76
2019-03-12T00:24:47.484Z,34.72
2019-03-12T00:25:47.456Z,34.45
2019-03-12T00:26:47.471Z,34.55
2019-03-12T00:27:47.487Z,34.44
2019-03-12T00:28:47.485Z,34.63
2019-03-12T00:29:47.455Z,34.29
2019-03-12T00:30:47.478Z,34.25
2019-03-12T00:31:47.472Z,34.64
2019-03-12T00:32:47.475Z,34.31
2019-03-12T00:33:47.490Z,34.66
2019-03-12T00:34:47.488Z,34.63
2019-03-12T00:35:47.461Z,34.21
2019-03-12T00:36:47.510Z,34.71
2019-03-12T00:37:47.473Z,34.56
2019-03-12T00:38:47.472Z,34.24
2019-03-12T00:39:47.481Z,34.58
2019-03-12T00:40:47.494Z,34.21
2019-03-12T00:41:47.500Z,34.52
2019-03-12T00:42:47.513Z,34.08
2019-03-12T00:43:47.506Z,34.15
2019-03-12T00:44:47.496Z,34.34
2019-03-12T00:45:47.494Z,34.23
2019-03-12T00:46:47.493Z,34.28
2019-03-12T00:47:47.530Z,34.39
2019-03-12T00:48:47.495Z,34.47
2019-03-12T00:49:47.505Z,34.30
2019-03-12T00:50:47.452Z,34.47
2019-03-12T00:51:47.532Z,34.44
2019-03-12T00:52:47.515Z,34.37
2019-03-12T00:53:47.526Z,34.13
2019-03-12T00:54:47.494Z,34.33
2019-03-12T00:55:47.490Z,34.34
2019-03-12T00:56:47.508Z,34.09
2019-03-12T00:57:47.496Z,34.38
2019-03-12T00:58:47.506Z,34.09
2019-03-12T00:59:47.505Z,34.08
2019-03-12T01:00:47.524Z,34.03
2019-03-12T01:01:47.534Z,34.46
2019-03-12T01:02:47.504Z,34.37
2019-03-12T01:03:47.501Z,33.87
2019-03-12T01:04:47.518Z,33.99
2019-03-12T01:05:47.515Z,34.22
2019-03-12T01:06:47.576Z,33.86
2019-03-12T01:07:47.533Z,34.15
2019-03-12T01:08:47.527Z,34.26
2019-03-12T01:09:47.532Z,33.90
2019-03-12T01:10:47.529Z,34.37
2019-03-12T01:11:47.554Z,34.16
2019-03-12T01:12:47.519Z,33.88
2019-03-12T01:13:47.535Z,34.07
2019-03-12T01:14:47.493Z,34.26
2019-03-12T01:15:47.523Z,34.09
2019-03-12T01:16:47.559Z,34.23
2019-03-12T01:17:47.540Z,34.10
2019-03-12T01:18:47.519Z,34.27
2019-03-12T01:19:47.548Z,34.24
2019-03-12T01:20:47.521Z,34.16
2019-03-12T01:21:47.562Z,33.98
2019-03-12T01:22:47.557Z,33.83
2019-03-12T01:23:47.540Z,34.27
2019-03-12T01:24:47.555Z,34.17
2019-03-12T01:25:47.555Z,34.02
2019-03-12T01:26:47.589Z,33.93
2019-03-12T01:27:47.531Z,34.07
2019-03-12T01:28:47.548Z,34.09
2019-03-12T01:29:47.586Z,34.20
2019-03-12T01:30:47.583Z,33.87
2019-03-12T01:31:47.584Z,33.99
2019-03-12T01:32:47.544Z,34.04
2019-03-12T01:33:47.558Z,34.00
2019-03-12T01:34:47.561Z,34.02
2019-03-12T01:35:47.536Z,33.97
2019-03-12T01:36:47.610Z,33.92
2019-03-12T01:37:47.554Z,33.93
2019-03-12T01:38:47.593Z,34.04
2019-03-12T01:39:47.621Z,34.26
2019-03-12T01:40:47.564Z,34.21
2019-03-12T01:41:47.565Z,33.90
2019-03-12T01:42:47.566Z,33.81
2019-03-12T01:43:47.555Z,33.92
2019-03-12T01:44:47.572Z,34.02
2019-03-12T01:45:47.608Z,33.97
2019-03-12T01:46:47.581Z,33.87
2019-03-12T01:47:47.586Z,33.88
2019-03-12T01:48:47.552Z,34.02
2019-03-12T01:49:47.575Z,33.86
2019-03-12T01:50:47.553Z,33.90
2019-03-12T01:51:47.563Z,33.97
2019-03-12T01:52:47.594Z,33.95
2019-03-12T01:53:47.565Z,33.68
2019-03-12T01:54:47.616Z,33.58
2019-03-12T01:55:47.594Z,33.89
2019-03-12T01:56:47.563Z,34.00
2019-03-12T01:57:47.627Z,33.61
2019-03-12T01:58:47.564Z,33.94
2019-03-12T01:59:47.612Z,33.79
2019-03-12T02:00:47.586Z,33.99
2019-03-12T02:01:47.618Z,34.03
2019-03-12T02:02:47.587Z,34.14
2019-03-12T02:03:47.594Z,33.62
2019-03-12T02:04:47.574Z,34.08
2019-03-12T02:05:47.620Z,33.91
2019-03-12T02:06:47.611Z,33.91
2019-03-12T02:07:47.617Z,33.88
2019-03-12T02:08:47.595Z,33.96
2019-03-12T02:09:47.592Z,33.81
2019-03-12T02:10:47.567Z,33.52
2019-03-12T02:11:47.627Z,33.65
2019-03-12T02:12:47.625Z,33.88
2019-03-12T02:13:47.586Z,33.93
2019-03-12T02:14:47.610Z,33.71
2019-03-12T02:15:47.595Z,33.71
2019-03-12T02:16:47.629Z,34.20
2019-03-12T02:17:47.621Z,33.80
2019-03-12T02:18:47.598Z,33.77
2019-03-12T02:19:47.609Z,34.02
2019-03-12T02:20:47.607Z,33.68
2019-03-12T02:21:47.599Z,34.06
2019-03-12T02:22:47.663Z,34.07
2019-03-12T02:23:47.608Z,33.77
2019-03-12T02:24:52.688Z,34.18
2019-03-12T02:25:47.637Z,33.34
2019-03-12T02:26:47.632Z,34.27
2019-03-12T02:27:47.645Z,33.77
2019-03-12T02:28:47.590Z,34.00
2019-03-12T02:29:47.636Z,33.81
2019-03-12T02:30:47.647Z,34.00
2019-03-12T02:31:47.664Z,33.80
2019-03-12T02:32:47.652Z,33.43
2019-03-12T02:33:47.626Z,33.73
2019-03-12T02:34:47.649Z,33.73
2019-03-12T02:35:47.641Z,34.06
2019-03-12T02:36:47.633Z,33.82
2019-03-12T02:37:47.616Z,34.11
2019-03-12T02:38:47.629Z,34.00
2019-03-12T02:39:47.692Z,33.75
2019-03-12T02:40:47.653Z,33.71
2019-03-12T02:41:47.633Z,33.94
2019-03-12T02:42:47.652Z,33.45
2019-03-12T02:43:47.657Z,33.43
2019-03-12T02:44:47.643Z,33.50
2019-03-12T02:45:47.646Z,33.91
2019-03-12T02:46:47.637Z,33.58
2019-03-12T02:47:47.639Z,33.39
2019-03-12T02:48:47.655Z,33.44
2019-03-12T02:49:47.631Z,33.59
2019-03-12T02:50:47.681Z,33.34
2019-03-12T02:51:47.672Z,33.72
2019-03-12T02:52:47.654Z,33.72
2019-03-12T02:53:47.666Z,33.97
2019-03-12T02:54:47.618Z,33.87
2019-03-12T02:55:47.648Z,33.44
2019-03-12T02:56:47.638Z,33.66
2019-03-12T02:57:47.653Z,34.03
2019-03-12T02:58:47.704Z,33.61
2019-03-12T02:59:47.652Z,33.85
2019-03-12T03:00:47.665Z,33.58
2019-03-12T03:01:47.699Z,33.62
2019-03-12T03:02:47.705Z,33.65
2019-03-12T03:03:47.720Z,33.60
2019-03-12T03:04:47.665Z,33.60
2019-03-12T03:05:47.672Z,33.24
2019-03-12T03:06:47.719Z,33.34
2019-03-12T03:07:47.672Z,33.65
2019-03-12T03:08:47.697Z,33.92
2019-03-12T03:09:47.673Z,33.21
2019-03-12T03:10:47.824Z,33.88
2019-03-12T03:11:50.918Z,33.29
2019-03-12T03:12:47.840Z,33.42
2019-03-12T03:13:47.713Z,33.52
2019-03-12T03:14:47.703Z,33.40
2019-03-12T03:15:47.689Z,33.63
2019-03-12T03:16:47.700Z,33.34
2019-03-12T03:17:47.703Z,33.85
2019-03-12T03:18:47.706Z,33.47
2019-03-12T03:19:47.690Z,33.48
2019-03-12T03:20:47.680Z,34.04
2019-03-12T03:21:47.679Z,33.34
2019-03-12T03:22:47.705Z,33.95
2019-03-12T03:23:47.714Z,33.73
2019-03-12T03:24:47.669Z,33.46
2019-03-12T03:25:47.669Z,33.67
2019-03-12T03:26:47.770Z,33.35
2019-03-12T03:27:47.721Z,33.56
2019-03-12T03:28:47.716Z,33.63
2019-03-12T03:29:47.697Z,33.45
2019-03-12T03:30:47.729Z,33.92
2019-03-12T03:31:47.707Z,33.90
2019-03-12T03:32:47.715Z,33.45
2019-03-12T03:33:47.718Z,33.67
2019-03-12T03:34:47.731Z,33.30
2019-03-12T03:35:47.717Z,33.50
2019-03-12T03:36:47.719Z,33.76
2019-03-12T03:37:47.742Z,33.48
2019-03-12T03:38:47.783Z,33.50
2019-03-12T03:39:47.711Z,33.54
2019-03-12T03:40:47.720Z,33.70
2019-03-12T03:41:47.705Z,33.60
2019-03-12T03:42:47.723Z,33.63
2019-03-12T03:43:47.747Z,33.85
2019-03-12T03:44:47.727Z,33.83
2019-03-12T03:45:47.736Z,33.36
2019-03-12T03:46:47.701Z,33.56
2019-03-12T03:47:47.757Z,34.17
2019-03-12T03:48:47.746Z,33.83
2019-03-12T03:49:47.735Z,33.58
2019-03-12T03:50:47.762Z,33.52
2019-03-12T03:51:47.736Z,33.66
2019-03-12T03:52:47.751Z,33.78
2019-03-12T03:53:47.707Z,33.88
2019-03-12T03:54:47.743Z,33.52
2019-03-12T03:55:47.738Z,33.60
2019-03-12T03:56:47.751Z,33.50
2019-03-12T03:57:47.770Z,33.88
2019-03-12T03:58:47.723Z,33.64
2019-03-12T03:59:47.765Z,33.81
2019-03-12T04:00:47.756Z,33.91
2019-03-12T04:01:47.720Z,34.00
2019-03-12T04:02:47.759Z,34.20
2019-03-12T04:03:47.763Z,33.99
2019-03-12T04:04:47.746Z,33.90
2019-03-12T04:05:47.747Z,34.08
2019-03-12T04:06:47.746Z,33.98
2019-03-12T04:07:47.741Z,33.61
2019-03-12T04:08:47.740Z,33.96
2019-03-12T04:09:47.789Z,34.24
2019-03-12T04:10:47.763Z,33.46
2019-03-12T04:11:47.779Z,34.12
2019-03-12T04:12:47.764Z,33.82
2019-03-12T04:13:47.780Z,33.68
2019-03-12T04:14:47.800Z,34.18
2019-03-12T04:15:47.764Z,33.93
2019-03-12T04:16:47.752Z,34.07
2019-03-12T04:17:47.767Z,34.17
2019-03-12T04:18:47.778Z,33.86
2019-03-12T04:19:47.785Z,34.16
2019-03-12T04:20:47.792Z,34.06
2019-03-12T04:21:47.759Z,33.87
2019-03-12T04:22:47.779Z,34.13
2019-03-12T04:23:47.776Z,34.19
2019-03-12T04:24:47.784Z,33.98
2019-03-12T04:25:47.770Z,34.27
2019-03-12T04:26:47.771Z,34.28
2019-03-12T04:27:47.757Z,33.68
2019-03-12T04:28:47.760Z,34.01
2019-03-12T04:29:47.799Z,33.98
2019-03-12T04:30:47.788Z,34.38
2019-03-12T04:31:47.817Z,33.72
2019-03-12T04:32:47.769Z,34.17
2019-03-12T04:33:47.819Z,34.25
2019-03-12T04:34:47.816Z,33.88
2019-03-12T04:35:47.765Z,34.32
2019-03-12T04:36:47.857Z,34.19
2019-03-12T04:37:47.798Z,34.18
2019-03-12T04:38:47.771Z,34.41
2019-03-12T04:39:47.813Z,34.16
2019-03-12T04:40:47.775Z,34.33
2019-03-12T04:41:47.812Z,34.33
2019-03-12T04:42:47.798Z,34.28
2019-03-12T04:43:47.795Z,34.08
2019-03-12T04:44:48.277Z,34.35
2019-03-12T04:45:47.806Z,33.93
2019-03-12T04:46:47.798Z,33.96
2019-03-12T04:47:47.828Z,34.39
2019-03-12T04:48:47.827Z,33.92
2019-03-12T04:49:47.795Z,34.16
2019-03-12T04:50:47.792Z,34.46
2019-03-12T04:51:47.790Z,34.24
2019-03-12T04:52:47.794Z,34.07
2019-03-12T04:53:47.812Z,33.86
2019-03-12T04:54:47.813Z,34.44
2019-03-12T04:55:47.831Z,34.16
2019-03-12T04:56:47.804Z,34.29
2019-03-12T04:57:47.855Z,34.08
2019-03-12T04:58:47.806Z,33.92
2019-03-12T04:59:47.805Z,34.26
2019-03-12T05:00:47.827Z,33.82
2019-03-12T05:01:47.841Z,34.23
2019-03-12T05:02:47.825Z,34.29
2019-03-12T05:03:47.787Z,33.95
2019-03-12T05:04:47.864Z,34.11
2019-03-12T05:05:47.847Z,33.96
2019-03-12T05:06:47.821Z,33.79
2019-03-12T05:07:47.835Z,34.25
2019-03-12T05:08:47.806Z,33.83
2019-03-12T05:09:47.829Z,34.18
2019-03-12T05:10:47.853Z,34.01
2019-03-12T05:11:47.813Z,33.86
2019-03-12T05:12:47.917Z,33.69
2019-03-12T05:13:47.828Z,34.31
2019-03-12T05:14:47.822Z,34.21
2019-03-12T05:15:47.876Z,34.17
2019-03-12T05:16:47.810Z,34.15
2019-03-12T05:17:47.823Z,34.21
2019-03-12T05:18:47.926Z,34.01
2019-03-12T05:19:47.867Z,34.07
2019-03-12T05:20:47.878Z,34.15
2019-03-12T05:21:47.849Z,34.34
2019-03-12T05:22:47.832Z,34.39
2019-03-12T05:23:47.818Z,34.24
2019-03-12T05:24:47.865Z,34.53
2019-03-12T05:25:47.865Z,34.26
2019-03-12T05:26:47.842Z,34.26
2019-03-12T05:27:47.849Z,34.18
2019-03-12T05:28:47.895Z,34.44
2019-03-12T05:29:47.856Z,34.21
2019-03-12T05:30:47.851Z,34.15
2019-03-12T05:31:47.835Z,34.10
2019-03-12T05:32:47.879Z,34.41
2019-03-12T05:33:47.862Z,34.52
2019-03-12T05:34:47.861Z,34.08
2019-03-12T05:35:47.857Z,34.43
2019-03-12T05:36:47.842Z,34.56
2019-03-12T05:37:47.864Z,34.51
2019-03-12T05:38:47.857Z,34.43
2019-03-12T05:39:47.857Z,34.05
2019-03-12T05:40:47.870Z,34.45
2019-03-12T05:41:47.833Z,34.62
2019-03-12T05:42:47.865Z,34.30
2019-03-12T05:43:47.885Z,34.38
2019-03-12T05:44:47.867Z,34.47
2019-03-12T05:45:48.155Z,34.60
2019-03-12T05:46:47.864Z,34.23
2019-03-12T05:47:47.864Z,34.58
2019-03-12T05:48:47.879Z,34.11
2019-03-12T05:49:47.874Z,34.32
2019-03-12T05:50:47.892Z,34.59
2019-03-12T05:51:47.875Z,34.28
2019-03-12T05:52:49.311Z,34.35
2019-03-12T05:53:47.866Z,34.32
2019-03-12T05:54:47.861Z,34.49
2019-03-12T05:55:47.894Z,34.39
2019-03-12T05:56:47.910Z,34.56
2019-03-12T05:57:47.897Z,34.20
2019-03-12T05:58:47.939Z,34.65
2019-03-12T05:59:47.870Z,34.28
2019-03-12T06:00:47.876Z,34.13
2019-03-12T06:01:47.903Z,34.47
2019-03-12T06:02:47.884Z,34.34
2019-03-12T06:03:47.925Z,34.35
2019-03-12T06:04:47.889Z,34.24
2019-03-12T06:05:47.928Z,34.38
2019-03-12T06:06:47.891Z,34.22
2019-03-12T06:07:47.917Z,34.54
2019-03-12T06:08:47.898Z,34.37
2019-03-12T06:09:47.913Z,34.00
2019-03-12T06:10:47.909Z,34.09
2019-03-12T06:11:47.907Z,34.38
2019-03-12T06:12:47.893Z,34.17
2019-03-12T06:13:47.901Z,34.35
2019-03-12T06:14:47.965Z,34.36
2019-03-12T06:15:47.925Z,34.37
2019-03-12T06:16:47.914Z,34.07
2019-03-12T06:17:47.896Z,34.05
2019-03-12T06:18:47.894Z,33.91
2019-03-12T06:19:47.909Z,34.19
2019-03-12T06:20:47.933Z,34.25
2019-03-12T06:21:47.950Z,34.07
2019-03-12T06:22:47.898Z,33.88
2019-03-12T06:23:47.935Z,34.14
2019-03-12T06:24:47.920Z,34.23
2019-03-12T06:25:47.910Z,34.13
2019-03-12T06:26:47.922Z,34.03
2019-03-12T06:27:47.905Z,34.16
2019-03-12T06:28:47.920Z,33.94
2019-03-12T06:29:47.918Z,33.90
2019-03-12T06:30:47.969Z,34.07
2019-03-12T06:31:47.968Z,33.77
2019-03-12T06:32:48.054Z,34.00
2019-03-12T06:33:47.918Z,33.65
2019-03-12T06:34:47.924Z,34.16
2019-03-12T06:35:47.918Z,34.11
2019-03-12T06:36:47.951Z,33.93
2019-03-12T06:37:47.967Z,33.99
2019-03-12T06:38:47.930Z,33.86
2019-03-12T06:39:47.960Z,33.93
2019-03-12T06:40:47.951Z,33.69
2019-03-12T06:41:47.972Z,33.58
2019-03-12T06:42:48.005Z,33.89
2019-03-12T06:43:47.928Z,33.71
2019-03-12T06:44:47.943Z,33.68
2019-03-12T06:45:47.931Z,33.68
2019-03-12T06:46:47.925Z,33.89
2019-03-12T06:47:47.963Z,33.70
2019-03-12T06:48:47.937Z,33.60
2019-03-12T06:49:47.937Z,33.36
2019-03-12T06:50:47.978Z,33.67
2019-03-12T06:51:47.943Z,33.41
2019-03-12T06:52:47.948Z,33.20
2019-03-12T06:53:47.948Z,33.54
2019-03-12T06:54:47.947Z,33.30
2019-03-12T06:55:47.944Z,33.16
2019-03-12T06:56:47.952Z,32.87
2019-03-12T06:57:47.983Z,32.70
2019-03-12T06:58:47.938Z,32.91
2019-03-12T06:59:47.943Z,32.87
2019-03-12T07:00:47.947Z,32.67
2019-03-12T07:01:48.003Z,32.47
2019-03-12T07:02:48.038Z,32.50
2019-03-12T07:03:47.962Z,32.50
2019-03-12T07:04:47.968Z,32.20
2019-03-12T07:05:47.958Z,32.15
2019-03-12T07:06:47.982Z,32.02
2019-03-12T07:07:47.983Z,32.32
2019-03-12T07:08:47.954Z,32.25
2019-03-12T07:09:47.976Z,31.97
2019-03-12T07:10:47.986Z,32.03
2019-03-12T07:11:47.956Z,32.18
2019-03-12T07:12:47.967Z,31.87
2019-03-12T07:13:47.994Z,32.28
2019-03-12T07:14:47.982Z,32.03
2019-03-12T07:15:47.974Z,32.01
2019-03-12T07:16:47.946Z,32.29
2019-03-12T07:17:48.013Z,32.33
2019-03-12T07:18:47.976Z,31.80
2019-03-12T07:19:48.005Z,32.19
2019-03-12T07:20:47.999Z,31.81
2019-03-12T07:21:48.028Z,31.89
2019-03-12T07:22:48.050Z,31.81
2019-03-12T07:23:48.061Z,31.75
2019-03-12T07:24:48.049Z,31.66
2019-03-12T07:25:50.738Z,31.79
2019-03-12T07:26:48.133Z,31.72
2019-03-12T07:27:48.112Z,31.69
2019-03-12T07:28:50.594Z,31.52
2019-03-12T07:29:48.132Z,31.57
2019-03-12T07:30:48.082Z,31.88
2019-03-12T07:31:48.091Z,31.71
2019-03-12T07:32:48.142Z,31.71
2019-03-12T07:33:48.079Z,31.36
2019-03-12T07:34:48.105Z,31.91
2019-03-12T07:35:48.096Z,31.38
2019-03-12T07:36:48.070Z,31.67
2019-03-12T07:37:48.083Z,31.74
2019-03-12T07:38:48.117Z,30.96
2019-03-12T07:39:48.130Z,31.17
2019-03-12T07:40:48.139Z,31.15
2019-03-12T07:41:48.144Z,30.93
2019-03-12T07:42:48.160Z,31.01
2019-03-12T07:43:48.176Z,31.05
2019-03-12T07:44:48.209Z,30.80
2019-03-12T07:45:48.151Z,31.26
2019-03-12T07:46:48.170Z,31.10
2019-03-12T07:47:48.196Z,30.93
2019-03-12T07:48:48.259Z,31.29
2019-03-12T07:49:48.251Z,30.96
2019-03-12T07:50:48.240Z,31.12
2019-03-12T07:51:48.246Z,31.29
2019-03-12T07:52:48.272Z,30.80
2019-03-12T07:53:58.998Z,30.78
2019-03-12T07:54:48.332Z,31.01
2019-03-12T07:55:48.256Z,31.27
2019-03-12T07:56:48.336Z,30.77
2019-03-12T07:57:48.291Z,30.78
2019-03-12T07:58:48.331Z,30.72
2019-03-12T07:59:48.258Z,30.85
2019-03-12T08:00:48.263Z,31.08
2019-03-12T08:01:48.273Z,31.39
2019-03-12T08:02:48.274Z,31.01
2019-03-12T08:03:48.293Z,30.87
2019-03-12T08:04:48.296Z,31.08
2019-03-12T08:05:48.281Z,31.20
2019-03-12T08:06:48.279Z,31.11
2019-03-12T08:07:48.308Z,31.39
2019-03-12T08:08:48.275Z,31.56
2019-03-12T08:09:48.315Z,31.32
2019-03-12T08:10:48.299Z,31.68
2019-03-12T08:11:48.306Z,31.75
2019-03-12T08:12:48.271Z,31.72
2019-03-12T08:13:48.273Z,31.41
2019-03-12T08:14:48.369Z,31.82
2019-03-12T08:15:50.432Z,31.69
2019-03-12T08:16:48.307Z,31.55
2019-03-12T08:17:48.314Z,31.76
2019-03-12T08:18:48.295Z,32.00
2019-03-12T08:19:48.314Z,31.67
2019-03-12T08:20:48.305Z,31.91
2019-03-12T08:21:49.739Z,31.84
2019-03-12T08:22:48.317Z,31.91
2019-03-12T08:23:48.320Z,31.67
2019-03-12T08:24:48.324Z,31.89
2019-03-12T08:25:48.299Z,32.08
2019-03-12T08:26:48.307Z,31.68
2019-03-12T08:27:48.338Z,32.10
2019-03-12T08:28:48.333Z,31.99
2019-03-12T08:29:48.343Z,31.79
2019-03-12T08:30:48.290Z,32.27
2019-03-12T08:31:48.300Z,31.92
2019-03-12T08:32:48.329Z,32.30
2019-03-12T08:33:50.982Z,31.93
2019-03-12T08:34:48.361Z,32.33
2019-03-12T08:35:48.316Z,32.11
2019-03-12T08:36:48.351Z,31.87
2019-03-12T08:37:48.356Z,32.08
2019-03-12T08:38:48.352Z,32.12
2019-03-12T08:39:48.457Z,32.27
2019-03-12T08:40:52.756Z,32.59
2019-03-12T08:41:48.408Z,32.31
2019-03-12T08:42:54.465Z,32.07
2019-03-12T08:43:48.402Z,32.04
2019-03-12T08:44:48.478Z,32.51
2019-03-12T08:45:48.915Z,32.56
2019-03-12T08:46:48.390Z,32.12
2019-03-12T08:47:48.395Z,32.14
2019-03-12T08:48:48.401Z,32.23
2019-03-12T08:49:48.445Z,32.64
2019-03-12T08:50:48.430Z,32.42
2019-03-12T08:51:48.395Z,32.22
2019-03-12T08:52:48.442Z,32.37
2019-03-12T08:53:48.429Z,32.37
2019-03-12T08:54:54.175Z,32.40
2019-03-12T08:55:48.412Z,32.32
2019-03-12T08:56:48.415Z,32.75
2019-03-12T08:57:48.439Z,32.51
2019-03-12T08:58:48.427Z,32.33
2019-03-12T08:59:48.434Z,32.63
2019-03-12T09:00:48.408Z,32.43
2019-03-12T09:01:48.434Z,33.10
2019-03-12T09:02:48.454Z,32.73
2019-03-12T09:03:48.424Z,32.51
2019-03-12T09:04:48.457Z,32.78
2019-03-12T09:05:48.416Z,32.23
2019-03-12T09:06:48.467Z,32.92
2019-03-12T09:07:48.421Z,32.81
2019-03-12T09:08:48.433Z,32.95
2019-03-12T09:09:48.455Z,32.35
2019-03-12T09:10:48.460Z,32.83
2019-03-12T09:11:48.415Z,33.03
2019-03-12T09:12:48.456Z,32.40
2019-03-12T09:13:48.459Z,32.42
2019-03-12T09:14:48.473Z,32.62
2019-03-12T09:15:48.439Z,32.84
2019-03-12T09:16:48.442Z,32.91
2019-03-12T09:17:48.449Z,33.21
2019-03-12T09:18:48.455Z,32.61
2019-03-12T09:19:48.470Z,32.71
2019-03-12T09:20:48.457Z,32.62
2019-03-12T09:21:48.457Z,32.58
2019-03-12T09:22:48.460Z,33.02
2019-03-12T09:23:48.470Z,32.98
2019-03-12T09:24:48.484Z,33.23
2019-03-12T09:25:48.538Z,33.16
2019-03-12T09:26:48.457Z,32.76
2019-03-12T09:27:48.449Z,32.73
2019-03-12T09:28:48.474Z,32.99
2019-03-12T09:29:48.505Z,32.98
2019-03-12T09:30:48.532Z,33.00
2019-03-12T09:31:48.499Z,32.49
2019-03-12T09:32:48.525Z,33.24
2019-03-12T09:33:48.469Z,33.03
2019-03-12T09:34:48.480Z,32.98
2019-03-12T09:35:48.479Z,32.92
2019-03-12T09:36:48.552Z,32.63
2019-03-12T09:37:48.488Z,33.05
2019-03-12T09:38:48.463Z,32.61
2019-03-12T09:39:48.469Z,32.86
2019-03-12T09:40:48.456Z,32.84
2019-03-12T09:41:48.515Z,32.66
2019-03-12T09:42:48.520Z,33.11
2019-03-12T09:43:48.453Z,33.29
2019-03-12T09:44:48.472Z,33.01
2019-03-12T09:45:48.486Z,32.95
2019-03-12T09:46:48.536Z,32.84
2019-03-12T09:47:48.488Z,32.78
2019-03-12T09:48:48.480Z,33.06
2019-03-12T09:49:48.484Z,33.40
2019-03-12T09:50:48.498Z,32.92
2019-03-12T09:51:48.531Z,32.76
2019-03-12T09:52:48.580Z,32.89
2019-03-12T09:53:48.512Z,32.95
2019-03-12T09:54:48.519Z,32.62
2019-03-12T09:55:48.496Z,32.96
2019-03-12T09:56:48.536Z,33.10
2019-03-12T09:57:48.581Z,32.92
2019-03-12T09:58:48.502Z,32.99
2019-03-12T09:59:48.540Z,33.22
2019-03-12T10:00:48.532Z,33.03
2019-03-12T10:01:48.507Z,33.42
2019-03-12T10:02:48.573Z,33.39
2019-03-12T10:03:48.472Z,33.20
2019-03-12T10:04:48.498Z,33.23
2019-03-12T10:05:48.504Z,33.22
2019-03-12T10:06:48.558Z,32.63
2019-03-12T10:07:48.571Z,33.05
2019-03-12T10:08:48.467Z,32.91
2019-03-12T10:09:48.550Z,32.90
2019-03-12T10:10:48.541Z,32.92
2019-03-12T10:11:48.505Z,33.27
2019-03-12T10:12:48.614Z,33.30
2019-03-12T10:13:48.542Z,33.68
2019-03-12T10:14:48.535Z,33.04
2019-03-12T10:15:48.502Z,33.15
2019-03-12T10:16:48.508Z,33.12
2019-03-12T10:17:48.617Z,32.94
2019-03-12T10:18:48.517Z,32.78
2019-03-12T10:19:48.514Z,32.88
2019-03-12T10:20:48.589Z,32.74
2019-03-12T10:21:48.543Z,33.29
2019-03-12T10:22:48.579Z,33.13
2019-03-12T10:23:48.578Z,33.39
2019-03-12T10:24:48.536Z,33.32
2019-03-12T10:25:48.562Z,33.11
2019-03-12T10:26:48.517Z,33.04
2019-03-12T10:27:48.557Z,33.04
2019-03-12T10:28:48.536Z,33.16
2019-03-12T10:29:48.549Z,33.58
2019-03-12T10:30:48.539Z,33.12
2019-03-12T10:31:48.531Z,33.17
2019-03-12T10:32:48.558Z,33.07
2019-03-12T10:33:48.594Z,33.43
2019-03-12T10:34:48.553Z,33.25
2019-03-12T10:35:48.587Z,32.95
2019-03-12T10:36:48.538Z,32.86
2019-03-12T10:37:48.553Z,33.33
2019-03-12T10:38:48.621Z,33.08
2019-03-12T10:39:48.535Z,33.49
2019-03-12T10:40:48.537Z,32.96
2019-03-12T10:41:48.541Z,32.82
2019-03-12T10:42:48.544Z,33.04
2019-03-12T10:43:48.589Z,33.29
2019-03-12T10:44:48.596Z,33.07
2019-03-12T10:45:48.561Z,32.74
2019-03-12T10:46:48.564Z,33.19
2019-03-12T10:47:48.620Z,33.07
2019-03-12T10:48:48.593Z,33.12
2019-03-12T10:49:48.584Z,33.21
2019-03-12T10:50:48.594Z,32.87
2019-03-12T10:51:48.579Z,33.19
2019-03-12T10:52:48.560Z,33.46
2019-03-12T10:53:48.585Z,33.52
2019-03-12T10:54:48.611Z,33.42
2019-03-12T10:55:48.620Z,32.96
2019-03-12T10:56:48.592Z,33.40
2019-03-12T10:57:48.595Z,33.19
2019-03-12T10:58:48.599Z,33.32
2019-03-12T10:59:48.620Z,33.51
2019-03-12T11:00:48.659Z,33.44
2019-03-12T11:01:48.611Z,33.38
2019-03-12T11:02:48.625Z,33.14
2019-03-12T11:03:48.637Z,32.85
2019-03-12T11:04:48.569Z,33.11
2019-03-12T11:05:48.655Z,33.20
2019-03-12T11:06:48.660Z,33.77
2019-03-12T11:07:48.591Z,33.38
2019-03-12T11:08:48.588Z,33.56
2019-03-12T11:09:48.652Z,33.00
2019-03-12T11:10:48.602Z,33.42
2019-03-12T11:11:48.649Z,32.92
2019-03-12T11:12:48.628Z,33.62
2019-03-12T11:13:48.638Z,33.13
2019-03-12T11:14:48.646Z,33.74
2019-03-12T11:15:48.650Z,33.32
2019-03-12T11:16:48.659Z,33.06
2019-03-12T11:17:50.281Z,32.93
2019-03-12T11:18:48.702Z,33.32
2019-03-12T11:19:48.615Z,33.71
2019-03-12T11:20:48.626Z,33.24
2019-03-12T11:21:48.631Z,33.57
2019-03-12T11:22:48.601Z,33.63
2019-03-12T11:23:48.678Z,32.78
2019-03-12T11:24:48.668Z,33.60
2019-03-12T11:25:48.626Z,33.04
2019-03-12T11:26:48.656Z,33.24
2019-03-12T11:27:48.610Z,33.29
2019-03-12T11:28:48.900Z,33.34
2019-03-12T11:29:48.620Z,33.52
2019-03-12T11:30:48.672Z,33.67
2019-03-12T11:31:48.611Z,33.27
2019-03-12T11:32:48.664Z,33.60
2019-03-12T11:33:48.672Z,33.27
2019-03-12T11:34:48.658Z,33.05
2019-03-12T11:35:48.607Z,33.01
2019-03-12T11:36:48.796Z,33.69
2019-03-12T11:37:49.061Z,33.30
2019-03-12T11:38:48.729Z,32.97
2019-03-12T11:39:48.660Z,32.99
2019-03-12T11:40:48.622Z,32.90
2019-03-12T11:41:48.676Z,33.45
2019-03-12T11:42:48.727Z,33.08
2019-03-12T11:43:48.928Z,33.19
2019-03-12T11:44:48.667Z,32.94
2019-03-12T11:45:48.693Z,33.04
2019-03-12T11:46:48.654Z,33.05
2019-03-12T11:47:48.781Z,33.03
2019-03-12T11:48:48.690Z,32.77
2019-03-12T11:49:48.634Z,33.47
2019-03-12T11:50:48.692Z,33.47
2019-03-12T11:51:48.665Z,33.39
2019-03-12T11:52:54.164Z,33.40
2019-03-12T11:53:48.725Z,33.37
2019-03-12T11:54:49.184Z,33.05
2019-03-12T11:55:48.713Z,33.07
2019-03-12T11:56:48.656Z,33.25
2019-03-12T11:57:48.806Z,32.93
2019-03-12T11:58:48.673Z,33.52
2019-03-12T11:59:48.658Z,33.06
2019-03-12T12:00:48.745Z,33.31
2019-03-12T12:01:48.626Z,33.37
2019-03-12T12:02:59.377Z,33.07
2019-03-12T12:03:48.707Z,33.24
2019-03-12T12:04:48.663Z,33.38
2019-03-12T12:05:48.655Z,33.32
2019-03-12T12:06:48.722Z,33.45
2019-03-12T12:07:48.702Z,33.07
2019-03-12T12:08:48.731Z,33.53
2019-03-12T12:09:48.693Z,33.67
2019-03-12T12:10:48.711Z,33.07
2019-03-12T12:11:48.716Z,33.09
2019-03-12T12:12:48.713Z,33.28
2019-03-12T12:13:48.675Z,33.16
2019-03-12T12:14:48.730Z,33.37
2019-03-12T12:15:48.703Z,33.50
2019-03-12T12:16:48.724Z,33.15
2019-03-12T12:17:49.421Z,33.27
2019-03-12T12:18:48.764Z,33.63
2019-03-12T12:19:48.703Z,33.06
2019-03-12T12:20:48.708Z,33.43
2019-03-12T12:21:48.696Z,33.66
2019-03-12T12:22:48.722Z,33.31
2019-03-12T12:23:48.703Z,33.39
2019-03-12T12:24:49.031Z,33.54
2019-03-12T12:25:48.713Z,33.24
2019-03-12T12:26:48.708Z,33.82
2019-03-12T12:27:48.721Z,33.42
2019-03-12T12:28:48.747Z,33.69
2019-03-12T12:29:48.758Z,33.47
2019-03-12T12:30:48.744Z,33.88
2019-03-12T12:31:48.719Z,33.51
2019-03-12T12:32:48.745Z,33.66
2019-03-12T12:33:48.741Z,33.60
2019-03-12T12:34:48.787Z,33.69
2019-03-12T12:35:48.706Z,33.49
2019-03-12T12:36:48.713Z,33.41
2019-03-12T12:37:48.722Z,33.79
2019-03-12T12:38:48.703Z,33.54
2019-03-12T12:39:48.702Z,33.60
2019-03-12T12:40:48.733Z,33.40
2019-03-12T12:41:48.736Z,33.44
2019-03-12T12:42:48.752Z,33.71
2019-03-12T12:43:48.714Z,33.39
2019-03-12T12:44:48.695Z,33.37
2019-03-12T12:45:48.690Z,33.78
2019-03-12T12:46:48.724Z,33.65
2019-03-12T12:47:48.745Z,33.78
2019-03-12T12:48:49.030Z,33.61
2019-03-12T12:49:48.710Z,33.43
2019-03-12T12:51:02.001Z,33.29
2019-03-12T12:51:48.803Z,33.42
2019-03-12T12:52:48.810Z,33.76